sensor_id;sensor_type;location;lat;lon;timestamp;temperature;humidity
11577;DHT22;5844;51.496;6.788;2023-08-06T00:02:23;16.20;1.00
11577;DHT22;5844;51.496;6.788;2023-08-06T00:04:48;16.20;1.00
11577;DHT22;5844;51.496;6.788;2023-08-06T00:07:14;16.10;1.00
11577;DHT22;5844;51.496;6.788;2023-08-06T00:09:40;16.00;1.00
11577;DHT22;5844;51.496;6.788;2023-08-06T00:12:05;15.80;1.00
11577;DHT22;5844;51.496;6.788;2023-08-06T00:14:31;15.70;1.00
11577;DHT22;5844;51.496;6.788;2023-08-06T00:16:57;15.60;1.00
11577;DHT22;5844;51.496;6.788;2023-08-06T00:19:23;15.60;1.00
11577;DHT22;5844;51.496;6.788;2023-08-06T00:21:48;15.60;1.00
11577;DHT22;5844;51.496;6.788;2023-08-06T00:24:14;15.60;1.00
11577;DHT22;5844;51.496;6.788;2023-08-06T00:26:40;15.60;1.00
11577;DHT22;5844;51.496;6.788;2023-08-06T00:29:05;15.60;1.00
11577;DHT22;5844;51.496;6.788;2023-08-06T00:31:31;15.60;1.00
11577;DHT22;5844;51.496;6.788;2023-08-06T00:33:56;15.70;1.00
11577;DHT22;5844;51.496;6.788;2023-08-06T00:36:22;15.60;1.00
11577;DHT22;5844;51.496;6.788;2023-08-06T00:38:48;15.60;1.00
11577;DHT22;5844;51.496;6.788;2023-08-06T00:41:14;15.60;1.00
11577;DHT22;5844;51.496;6.788;2023-08-06T00:43:40;15.60;1.00
11577;DHT22;5844;51.496;6.788;2023-08-06T00:46:06;15.60;1.00
11577;DHT22;5844;51.496;6.788;2023-08-06T00:48:33;15.70;1.00
11577;DHT22;5844;51.496;6.788;2023-08-06T00:50:59;15.70;1.00
11577;DHT22;5844;51.496;6.788;2023-08-06T00:53:25;15.70;1.00
11577;DHT22;5844;51.496;6.788;2023-08-06T00:55:51;15.70;1.00
11577;DHT22;5844;51.496;6.788;2023-08-06T00:58:17;15.70;1.00
11577;DHT22;5844;51.496;6.788;2023-08-06T01:00:43;15.70;1.00
11577;DHT22;5844;51.496;6.788;2023-08-06T01:03:08;15.70;1.00
11577;DHT22;5844;51.496;6.788;2023-08-06T01:05:34;15.70;1.00
11577;DHT22;5844;51.496;6.788;2023-08-06T01:13:46;15.70;1.00
11577;DHT22;5844;51.496;6.788;2023-08-06T01:16:17;15.70;1.00
11577;DHT22;5844;51.496;6.788;2023-08-06T01:18:43;15.70;1.00
11577;DHT22;5844;51.496;6.788;2023-08-06T01:21:13;15.70;1.00
11577;DHT22;5844;51.496;6.788;2023-08-06T01:23:39;15.70;1.00
11577;DHT22;5844;51.496;6.788;2023-08-06T01:26:19;15.70;1.00
11577;DHT22;5844;51.496;6.788;2023-08-06T01:29:02;15.70;1.00
11577;DHT22;5844;51.496;6.788;2023-08-06T01:31:32;15.70;1.00
11577;DHT22;5844;51.496;6.788;2023-08-06T01:34:01;15.70;1.00
11577;DHT22;5844;51.496;6.788;2023-08-06T01:36:28;15.70;1.00
11577;DHT22;5844;51.496;6.788;2023-08-06T01:38:54;15.70;1.00
11577;DHT22;5844;51.496;6.788;2023-08-06T01:41:20;15.70;1.00
11577;DHT22;5844;51.496;6.788;2023-08-06T01:43:45;15.70;1.00
11577;DHT22;5844;51.496;6.788;2023-08-06T01:46:11;15.80;1.00
11577;DHT22;5844;51.496;6.788;2023-08-06T01:48:36;15.80;1.00
11577;DHT22;5844;51.496;6.788;2023-08-06T01:51:05;15.80;1.00
11577;DHT22;5844;51.496;6.788;2023-08-06T01:53:31;15.80;1.00
11577;DHT22;5844;51.496;6.788;2023-08-06T01:55:57;15.80;1.00
11577;DHT22;5844;51.496;6.788;2023-08-06T01:58:24;15.80;1.00
11577;DHT22;5844;51.496;6.788;2023-08-06T02:00:50;15.80;1.00
11577;DHT22;5844;51.496;6.788;2023-08-06T02:03:15;15.80;1.00
11577;DHT22;5844;51.496;6.788;2023-08-06T02:05:41;15.80;1.00
11577;DHT22;5844;51.496;6.788;2023-08-06T02:08:07;15.80;1.00
11577;DHT22;5844;51.496;6.788;2023-08-06T02:10:33;15.80;1.00
11577;DHT22;5844;51.496;6.788;2023-08-06T02:12:58;15.70;1.00
11577;DHT22;5844;51.496;6.788;2023-08-06T02:15:24;15.70;1.00
11577;DHT22;5844;51.496;6.788;2023-08-06T02:17:50;15.70;1.00
11577;DHT22;5844;51.496;6.788;2023-08-06T02:20:15;15.70;1.00
11577;DHT22;5844;51.496;6.788;2023-08-06T02:22:41;15.70;1.00
11577;DHT22;5844;51.496;6.788;2023-08-06T02:25:07;15.70;1.00
11577;DHT22;5844;51.496;6.788;2023-08-06T02:27:32;15.60;1.00
11577;DHT22;5844;51.496;6.788;2023-08-06T02:29:58;15.60;1.00
11577;DHT22;5844;51.496;6.788;2023-08-06T02:32:24;15.60;1.00
11577;DHT22;5844;51.496;6.788;2023-08-06T02:34:49;15.60;1.00
11577;DHT22;5844;51.496;6.788;2023-08-06T02:37:15;15.60;1.00
11577;DHT22;5844;51.496;6.788;2023-08-06T02:39:41;15.60;1.00
11577;DHT22;5844;51.496;6.788;2023-08-06T02:42:07;15.60;1.00
11577;DHT22;5844;51.496;6.788;2023-08-06T02:44:33;15.60;1.00
11577;DHT22;5844;51.496;6.788;2023-08-06T02:46:59;15.50;1.00
11577;DHT22;5844;51.496;6.788;2023-08-06T02:49:25;15.50;1.00
11577;DHT22;5844;51.496;6.788;2023-08-06T02:51:51;15.40;1.00
11577;DHT22;5844;51.496;6.788;2023-08-06T02:54:17;15.40;1.00
11577;DHT22;5844;51.496;6.788;2023-08-06T02:56:44;15.40;1.00
11577;DHT22;5844;51.496;6.788;2023-08-06T02:59:10;15.30;1.00
11577;DHT22;5844;51.496;6.788;2023-08-06T03:01:36;15.30;1.00
11577;DHT22;5844;51.496;6.788;2023-08-06T03:04:02;15.30;1.00
11577;DHT22;5844;51.496;6.788;2023-08-06T03:06:27;15.30;1.00
11577;DHT22;5844;51.496;6.788;2023-08-06T03:08:55;15.30;1.00
11577;DHT22;5844;51.496;6.788;2023-08-06T03:11:21;15.30;1.00
11577;DHT22;5844;51.496;6.788;2023-08-06T03:13:49;15.30;1.00
11577;DHT22;5844;51.496;6.788;2023-08-06T03:16:15;15.30;1.00
11577;DHT22;5844;51.496;6.788;2023-08-06T03:18:40;15.30;1.00
11577;DHT22;5844;51.496;6.788;2023-08-06T03:21:06;15.20;1.00
11577;DHT22;5844;51.496;6.788;2023-08-06T03:23:32;15.10;1.00
11577;DHT22;5844;51.496;6.788;2023-08-06T03:26:04;15.10;1.00
11577;DHT22;5844;51.496;6.788;2023-08-06T03:28:29;15.10;1.00
11577;DHT22;5844;51.496;6.788;2023-08-06T03:31:04;15.20;1.00
11577;DHT22;5844;51.496;6.788;2023-08-06T03:33:30;15.20;1.00
11577;DHT22;5844;51.496;6.788;2023-08-06T03:35:55;15.20;1.00
11577;DHT22;5844;51.496;6.788;2023-08-06T03:38:22;15.20;1.00
11577;DHT22;5844;51.496;6.788;2023-08-06T03:40:48;15.20;1.00
11577;DHT22;5844;51.496;6.788;2023-08-06T03:43:14;15.30;1.00
11577;DHT22;5844;51.496;6.788;2023-08-06T03:45:40;15.20;1.00
11577;DHT22;5844;51.496;6.788;2023-08-06T03:48:06;15.20;1.00
11577;DHT22;5844;51.496;6.788;2023-08-06T03:50:32;15.20;1.00
11577;DHT22;5844;51.496;6.788;2023-08-06T03:52:58;15.30;1.00
11577;DHT22;5844;51.496;6.788;2023-08-06T03:55:23;15.20;1.00
11577;DHT22;5844;51.496;6.788;2023-08-06T03:57:49;15.20;1.00
11577;DHT22;5844;51.496;6.788;2023-08-06T04:00:15;15.10;1.00
11577;DHT22;5844;51.496;6.788;2023-08-06T04:02:40;15.00;1.00
11577;DHT22;5844;51.496;6.788;2023-08-06T04:05:06;15.00;1.00
11577;DHT22;5844;51.496;6.788;2023-08-06T04:07:32;14.90;1.00
11577;DHT22;5844;51.496;6.788;2023-08-06T04:09:59;14.90;1.00
11577;DHT22;5844;51.496;6.788;2023-08-06T04:12:26;15.00;1.00
11577;DHT22;5844;51.496;6.788;2023-08-06T04:14:52;15.00;1.00
11577;DHT22;5844;51.496;6.788;2023-08-06T04:17:18;15.00;1.00
11577;DHT22;5844;51.496;6.788;2023-08-06T04:19:54;14.90;1.00
11577;DHT22;5844;51.496;6.788;2023-08-06T04:22:20;15.00;1.00
11577;DHT22;5844;51.496;6.788;2023-08-06T04:24:47;15.00;1.00
11577;DHT22;5844;51.496;6.788;2023-08-06T04:27:13;15.00;1.00
11577;DHT22;5844;51.496;6.788;2023-08-06T04:29:39;15.10;1.00
11577;DHT22;5844;51.496;6.788;2023-08-06T04:32:07;15.10;1.00
11577;DHT22;5844;51.496;6.788;2023-08-06T04:34:34;15.10;1.00
11577;DHT22;5844;51.496;6.788;2023-08-06T04:37:00;15.10;1.00
11577;DHT22;5844;51.496;6.788;2023-08-06T04:39:26;15.10;1.00
11577;DHT22;5844;51.496;6.788;2023-08-06T04:41:51;15.10;1.00
11577;DHT22;5844;51.496;6.788;2023-08-06T04:44:17;15.10;1.00
11577;DHT22;5844;51.496;6.788;2023-08-06T04:46:43;15.10;1.00
11577;DHT22;5844;51.496;6.788;2023-08-06T04:49:08;15.10;1.00
11577;DHT22;5844;51.496;6.788;2023-08-06T04:51:34;15.20;1.00
11577;DHT22;5844;51.496;6.788;2023-08-06T04:54:00;15.20;1.00
11577;DHT22;5844;51.496;6.788;2023-08-06T04:56:25;15.30;1.00
11577;DHT22;5844;51.496;6.788;2023-08-06T04:58:51;15.30;1.00
11577;DHT22;5844;51.496;6.788;2023-08-06T05:01:17;15.30;1.00
11577;DHT22;5844;51.496;6.788;2023-08-06T05:03:42;15.30;1.00
11577;DHT22;5844;51.496;6.788;2023-08-06T05:06:08;15.30;1.00
11577;DHT22;5844;51.496;6.788;2023-08-06T05:08:34;15.30;1.00
11577;DHT22;5844;51.496;6.788;2023-08-06T05:10:59;15.30;1.00
11577;DHT22;5844;51.496;6.788;2023-08-06T05:13:25;15.30;1.00
11577;DHT22;5844;51.496;6.788;2023-08-06T05:15:53;15.30;1.00
11577;DHT22;5844;51.496;6.788;2023-08-06T05:18:18;15.30;1.00
11577;DHT22;5844;51.496;6.788;2023-08-06T05:20:44;15.30;1.00
11577;DHT22;5844;51.496;6.788;2023-08-06T05:23:10;15.40;1.00
11577;DHT22;5844;51.496;6.788;2023-08-06T05:25:36;15.50;1.00
11577;DHT22;5844;51.496;6.788;2023-08-06T05:28:02;15.60;1.00
11577;DHT22;5844;51.496;6.788;2023-08-06T05:30:28;15.70;1.00
11577;DHT22;5844;51.496;6.788;2023-08-06T05:32:54;15.90;1.00
11577;DHT22;5844;51.496;6.788;2023-08-06T05:35:21;16.00;1.00
11577;DHT22;5844;51.496;6.788;2023-08-06T05:37:46;16.10;1.00
11577;DHT22;5844;51.496;6.788;2023-08-06T05:40:12;16.20;1.00
11577;DHT22;5844;51.496;6.788;2023-08-06T05:42:38;16.30;1.00
11577;DHT22;5844;51.496;6.788;2023-08-06T05:45:04;16.50;1.00
11577;DHT22;5844;51.496;6.788;2023-08-06T05:47:29;16.50;1.00
11577;DHT22;5844;51.496;6.788;2023-08-06T05:49:55;16.60;1.00
11577;DHT22;5844;51.496;6.788;2023-08-06T05:52:21;16.60;1.00
11577;DHT22;5844;51.496;6.788;2023-08-06T05:54:46;16.70;1.00
11577;DHT22;5844;51.496;6.788;2023-08-06T05:57:12;16.60;1.00
11577;DHT22;5844;51.496;6.788;2023-08-06T05:59:37;16.60;1.00
11577;DHT22;5844;51.496;6.788;2023-08-06T06:02:03;16.60;1.00
11577;DHT22;5844;51.496;6.788;2023-08-06T06:04:29;16.60;1.00
11577;DHT22;5844;51.496;6.788;2023-08-06T06:06:55;16.60;1.00
11577;DHT22;5844;51.496;6.788;2023-08-06T06:09:20;16.60;1.00
11577;DHT22;5844;51.496;6.788;2023-08-06T06:11:46;16.70;1.00
11577;DHT22;5844;51.496;6.788;2023-08-06T06:14:13;16.70;1.00
11577;DHT22;5844;51.496;6.788;2023-08-06T06:16:38;16.80;1.00
11577;DHT22;5844;51.496;6.788;2023-08-06T06:19:04;16.70;1.00
11577;DHT22;5844;51.496;6.788;2023-08-06T06:21:29;16.80;1.00
11577;DHT22;5844;51.496;6.788;2023-08-06T06:23:55;16.80;1.00
11577;DHT22;5844;51.496;6.788;2023-08-06T06:26:22;16.80;1.00
11577;DHT22;5844;51.496;6.788;2023-08-06T06:28:47;16.80;1.00
11577;DHT22;5844;51.496;6.788;2023-08-06T06:31:13;16.80;1.00
11577;DHT22;5844;51.496;6.788;2023-08-06T06:33:38;16.70;1.00
11577;DHT22;5844;51.496;6.788;2023-08-06T06:36:04;16.60;1.00
11577;DHT22;5844;51.496;6.788;2023-08-06T06:38:30;16.60;1.00
11577;DHT22;5844;51.496;6.788;2023-08-06T06:40:58;16.50;1.00
11577;DHT22;5844;51.496;6.788;2023-08-06T06:43:24;16.60;1.00
11577;DHT22;5844;51.496;6.788;2023-08-06T06:45:56;16.60;1.00
11577;DHT22;5844;51.496;6.788;2023-08-06T06:48:23;16.70;1.00
11577;DHT22;5844;51.496;6.788;2023-08-06T06:50:48;16.70;1.00
11577;DHT22;5844;51.496;6.788;2023-08-06T06:53:14;16.80;1.00
11577;DHT22;5844;51.496;6.788;2023-08-06T06:55:40;16.80;1.00
11577;DHT22;5844;51.496;6.788;2023-08-06T06:58:06;16.80;1.00
11577;DHT22;5844;51.496;6.788;2023-08-06T07:00:32;16.90;1.00
11577;DHT22;5844;51.496;6.788;2023-08-06T07:02:58;17.10;1.00
11577;DHT22;5844;51.496;6.788;2023-08-06T07:05:23;17.10;1.00
11577;DHT22;5844;51.496;6.788;2023-08-06T07:07:49;17.30;1.00
11577;DHT22;5844;51.496;6.788;2023-08-06T07:10:15;17.30;1.00
11577;DHT22;5844;51.496;6.788;2023-08-06T07:12:40;17.30;1.00
11577;DHT22;5844;51.496;6.788;2023-08-06T07:15:06;17.40;1.00
11577;DHT22;5844;51.496;6.788;2023-08-06T07:17:33;17.50;1.00
11577;DHT22;5844;51.496;6.788;2023-08-06T07:19:59;17.70;1.00
11577;DHT22;5844;51.496;6.788;2023-08-06T07:22:24;17.80;1.00
11577;DHT22;5844;51.496;6.788;2023-08-06T07:24:50;17.90;1.00
11577;DHT22;5844;51.496;6.788;2023-08-06T07:27:15;18.00;1.00
11577;DHT22;5844;51.496;6.788;2023-08-06T07:29:41;18.20;1.00
11577;DHT22;5844;51.496;6.788;2023-08-06T07:32:07;18.40;1.00
11577;DHT22;5844;51.496;6.788;2023-08-06T07:34:33;18.70;1.00
11577;DHT22;5844;51.496;6.788;2023-08-06T07:36:58;18.70;1.00
11577;DHT22;5844;51.496;6.788;2023-08-06T07:39:25;18.80;1.00
11577;DHT22;5844;51.496;6.788;2023-08-06T07:41:50;19.00;1.00
11577;DHT22;5844;51.496;6.788;2023-08-06T07:44:16;19.20;1.00
11577;DHT22;5844;51.496;6.788;2023-08-06T07:46:42;19.30;1.00
11577;DHT22;5844;51.496;6.788;2023-08-06T07:49:08;19.50;1.00
11577;DHT22;5844;51.496;6.788;2023-08-06T07:51:33;19.60;1.00
11577;DHT22;5844;51.496;6.788;2023-08-06T07:53:59;19.60;1.00
11577;DHT22;5844;51.496;6.788;2023-08-06T07:56:24;19.80;1.00
11577;DHT22;5844;51.496;6.788;2023-08-06T07:58:50;19.80;1.00
11577;DHT22;5844;51.496;6.788;2023-08-06T08:01:16;19.90;1.00
11577;DHT22;5844;51.496;6.788;2023-08-06T08:03:41;19.80;1.00
11577;DHT22;5844;51.496;6.788;2023-08-06T08:06:07;19.60;1.00
11577;DHT22;5844;51.496;6.788;2023-08-06T08:08:32;19.40;1.00
11577;DHT22;5844;51.496;6.788;2023-08-06T08:10:58;19.20;1.00
11577;DHT22;5844;51.496;6.788;2023-08-06T08:13:26;19.20;1.00
11577;DHT22;5844;51.496;6.788;2023-08-06T08:15:57;19.20;1.00
11577;DHT22;5844;51.496;6.788;2023-08-06T08:18:22;19.10;1.00
11577;DHT22;5844;51.496;6.788;2023-08-06T08:20:48;18.90;1.00
11577;DHT22;5844;51.496;6.788;2023-08-06T08:23:14;18.80;1.00
11577;DHT22;5844;51.496;6.788;2023-08-06T08:25:39;18.70;1.00
11577;DHT22;5844;51.496;6.788;2023-08-06T08:28:05;18.60;1.00
11577;DHT22;5844;51.496;6.788;2023-08-06T08:30:30;18.50;1.00
11577;DHT22;5844;51.496;6.788;2023-08-06T08:32:56;18.50;1.00
11577;DHT22;5844;51.496;6.788;2023-08-06T08:35:22;18.50;1.00
11577;DHT22;5844;51.496;6.788;2023-08-06T08:37:48;18.50;1.00
11577;DHT22;5844;51.496;6.788;2023-08-06T08:40:14;18.50;1.00
11577;DHT22;5844;51.496;6.788;2023-08-06T08:42:40;18.70;1.00
11577;DHT22;5844;51.496;6.788;2023-08-06T08:45:13;18.90;1.00
11577;DHT22;5844;51.496;6.788;2023-08-06T08:47:42;19.10;1.00
11577;DHT22;5844;51.496;6.788;2023-08-06T08:50:11;19.40;1.00
11577;DHT22;5844;51.496;6.788;2023-08-06T08:52:38;19.40;1.00
11577;DHT22;5844;51.496;6.788;2023-08-06T08:55:07;19.50;1.00
11577;DHT22;5844;51.496;6.788;2023-08-06T08:57:33;19.50;1.00
11577;DHT22;5844;51.496;6.788;2023-08-06T08:59:59;19.60;1.00
11577;DHT22;5844;51.496;6.788;2023-08-06T09:02:26;19.70;1.00
11577;DHT22;5844;51.496;6.788;2023-08-06T09:04:54;19.70;1.00
11577;DHT22;5844;51.496;6.788;2023-08-06T09:07:21;19.80;1.00
11577;DHT22;5844;51.496;6.788;2023-08-06T09:09:49;19.80;1.00
11577;DHT22;5844;51.496;6.788;2023-08-06T09:12:17;19.70;1.00
11577;DHT22;5844;51.496;6.788;2023-08-06T09:14:43;19.70;1.00
11577;DHT22;5844;51.496;6.788;2023-08-06T09:17:09;19.70;1.00
11577;DHT22;5844;51.496;6.788;2023-08-06T09:19:36;19.70;1.00
11577;DHT22;5844;51.496;6.788;2023-08-06T09:22:02;19.60;1.00
11577;DHT22;5844;51.496;6.788;2023-08-06T09:24:28;19.70;1.00
11577;DHT22;5844;51.496;6.788;2023-08-06T09:26:54;19.70;1.00
11577;DHT22;5844;51.496;6.788;2023-08-06T09:29:20;19.70;1.00
11577;DHT22;5844;51.496;6.788;2023-08-06T09:31:48;19.80;1.00
11577;DHT22;5844;51.496;6.788;2023-08-06T09:34:21;19.90;1.00
11577;DHT22;5844;51.496;6.788;2023-08-06T09:36:54;20.10;1.00
11577;DHT22;5844;51.496;6.788;2023-08-06T09:39:21;20.30;1.00
11577;DHT22;5844;51.496;6.788;2023-08-06T09:41:47;20.40;1.00
11577;DHT22;5844;51.496;6.788;2023-08-06T09:44:20;20.50;1.00
11577;DHT22;5844;51.496;6.788;2023-08-06T09:46:51;20.60;1.00
11577;DHT22;5844;51.496;6.788;2023-08-06T09:49:25;20.60;1.00
11577;DHT22;5844;51.496;6.788;2023-08-06T09:51:54;20.70;1.00
11577;DHT22;5844;51.496;6.788;2023-08-06T09:54:24;20.80;1.00
11577;DHT22;5844;51.496;6.788;2023-08-06T09:56:52;20.80;1.00
11577;DHT22;5844;51.496;6.788;2023-08-06T09:59:18;20.80;1.00
11577;DHT22;5844;51.496;6.788;2023-08-06T10:01:45;20.70;1.00
11577;DHT22;5844;51.496;6.788;2023-08-06T10:04:14;20.60;1.00
11577;DHT22;5844;51.496;6.788;2023-08-06T10:06:42;20.60;1.00
11577;DHT22;5844;51.496;6.788;2023-08-06T10:09:08;20.50;1.00
11577;DHT22;5844;51.496;6.788;2023-08-06T10:11:36;20.20;1.00
11577;DHT22;5844;51.496;6.788;2023-08-06T10:14:08;19.90;1.00
11577;DHT22;5844;51.496;6.788;2023-08-06T10:16:36;19.70;1.00
11577;DHT22;5844;51.496;6.788;2023-08-06T10:19:04;19.50;1.00
11577;DHT22;5844;51.496;6.788;2023-08-06T10:21:32;19.60;1.00
11577;DHT22;5844;51.496;6.788;2023-08-06T10:23:57;19.70;1.00
11577;DHT22;5844;51.496;6.788;2023-08-06T10:26:29;19.80;1.00
11577;DHT22;5844;51.496;6.788;2023-08-06T10:28:55;19.90;1.00
11577;DHT22;5844;51.496;6.788;2023-08-06T10:31:53;20.10;1.00
11577;DHT22;5844;51.496;6.788;2023-08-06T10:34:22;20.30;1.00
11577;DHT22;5844;51.496;6.788;2023-08-06T10:36:48;20.40;1.00
11577;DHT22;5844;51.496;6.788;2023-08-06T10:39:14;20.40;1.00
11577;DHT22;5844;51.496;6.788;2023-08-06T10:41:42;20.40;1.00
11577;DHT22;5844;51.496;6.788;2023-08-06T10:44:10;20.40;1.00
11577;DHT22;5844;51.496;6.788;2023-08-06T10:46:37;20.40;1.00
11577;DHT22;5844;51.496;6.788;2023-08-06T10:49:04;20.40;1.00
11577;DHT22;5844;51.496;6.788;2023-08-06T10:51:30;20.40;1.00
11577;DHT22;5844;51.496;6.788;2023-08-06T10:53:56;20.30;1.00
11577;DHT22;5844;51.496;6.788;2023-08-06T10:56:25;20.10;1.00
11577;DHT22;5844;51.496;6.788;2023-08-06T10:58:54;19.80;1.00
11577;DHT22;5844;51.496;6.788;2023-08-06T11:01:20;19.40;1.00
11577;DHT22;5844;51.496;6.788;2023-08-06T11:03:47;19.10;1.00
11577;DHT22;5844;51.496;6.788;2023-08-06T11:06:21;18.80;1.00
11577;DHT22;5844;51.496;6.788;2023-08-06T11:08:52;18.50;1.00
11577;DHT22;5844;51.496;6.788;2023-08-06T11:11:23;18.20;1.00
11577;DHT22;5844;51.496;6.788;2023-08-06T11:13:49;18.00;1.00
11577;DHT22;5844;51.496;6.788;2023-08-06T11:16:22;17.90;1.00
11577;DHT22;5844;51.496;6.788;2023-08-06T11:18:50;17.80;1.00
11577;DHT22;5844;51.496;6.788;2023-08-06T11:21:19;17.40;1.00
11577;DHT22;5844;51.496;6.788;2023-08-06T11:23:45;17.10;1.00
11577;DHT22;5844;51.496;6.788;2023-08-06T11:26:11;17.00;1.00
11577;DHT22;5844;51.496;6.788;2023-08-06T11:28:36;16.80;1.00
11577;DHT22;5844;51.496;6.788;2023-08-06T11:31:02;16.60;1.00
11577;DHT22;5844;51.496;6.788;2023-08-06T11:33:29;16.50;1.00
11577;DHT22;5844;51.496;6.788;2023-08-06T11:35:56;16.30;1.00
11577;DHT22;5844;51.496;6.788;2023-08-06T11:38:25;16.10;1.00
11577;DHT22;5844;51.496;6.788;2023-08-06T11:40:51;16.10;1.00
11577;DHT22;5844;51.496;6.788;2023-08-06T11:43:19;16.00;1.00
11577;DHT22;5844;51.496;6.788;2023-08-06T11:45:46;16.00;1.00
11577;DHT22;5844;51.496;6.788;2023-08-06T11:48:12;16.00;1.00
11577;DHT22;5844;51.496;6.788;2023-08-06T11:50:38;16.00;1.00
11577;DHT22;5844;51.496;6.788;2023-08-06T11:53:06;16.00;1.00
11577;DHT22;5844;51.496;6.788;2023-08-06T11:55:33;15.90;1.00
11577;DHT22;5844;51.496;6.788;2023-08-06T11:58:03;16.00;1.00
11577;DHT22;5844;51.496;6.788;2023-08-06T12:00:29;16.00;1.00
11577;DHT22;5844;51.496;6.788;2023-08-06T12:02:56;16.00;1.00
11577;DHT22;5844;51.496;6.788;2023-08-06T12:05:23;16.10;1.00
11577;DHT22;5844;51.496;6.788;2023-08-06T12:07:53;16.10;1.00
11577;DHT22;5844;51.496;6.788;2023-08-06T12:10:21;16.10;1.00
11577;DHT22;5844;51.496;6.788;2023-08-06T12:12:47;16.20;1.00
11577;DHT22;5844;51.496;6.788;2023-08-06T12:15:13;16.20;1.00
11577;DHT22;5844;51.496;6.788;2023-08-06T12:17:39;16.30;1.00
11577;DHT22;5844;51.496;6.788;2023-08-06T12:20:06;16.50;1.00
11577;DHT22;5844;51.496;6.788;2023-08-06T12:22:32;16.60;1.00
11577;DHT22;5844;51.496;6.788;2023-08-06T12:25:01;16.70;1.00
11577;DHT22;5844;51.496;6.788;2023-08-06T12:27:28;16.80;1.00
11577;DHT22;5844;51.496;6.788;2023-08-06T12:29:53;16.80;1.00
11577;DHT22;5844;51.496;6.788;2023-08-06T12:32:19;16.90;1.00
11577;DHT22;5844;51.496;6.788;2023-08-06T12:34:45;16.90;1.00
11577;DHT22;5844;51.496;6.788;2023-08-06T12:37:10;16.90;1.00
11577;DHT22;5844;51.496;6.788;2023-08-06T12:39:37;16.90;1.00
11577;DHT22;5844;51.496;6.788;2023-08-06T12:42:04;16.80;1.00
11577;DHT22;5844;51.496;6.788;2023-08-06T12:44:30;16.90;1.00
11577;DHT22;5844;51.496;6.788;2023-08-06T12:46:56;16.90;1.00
11577;DHT22;5844;51.496;6.788;2023-08-06T12:49:22;17.00;1.00
11577;DHT22;5844;51.496;6.788;2023-08-06T12:51:48;17.00;1.00
11577;DHT22;5844;51.496;6.788;2023-08-06T12:54:14;17.10;1.00
11577;DHT22;5844;51.496;6.788;2023-08-06T12:56:40;16.10;1.00
11577;DHT22;5844;51.496;6.788;2023-08-06T12:59:05;17.50;1.00
11577;DHT22;5844;51.496;6.788;2023-08-06T13:01:31;17.70;1.00
11577;DHT22;5844;51.496;6.788;2023-08-06T13:03:58;17.80;1.00
11577;DHT22;5844;51.496;6.788;2023-08-06T13:06:23;17.80;1.00
11577;DHT22;5844;51.496;6.788;2023-08-06T13:08:49;17.80;1.00
11577;DHT22;5844;51.496;6.788;2023-08-06T13:11:14;17.80;1.00
11577;DHT22;5844;51.496;6.788;2023-08-06T13:13:40;17.90;1.00
11577;DHT22;5844;51.496;6.788;2023-08-06T13:16:06;17.70;1.00
11577;DHT22;5844;51.496;6.788;2023-08-06T13:18:31;17.70;1.00
11577;DHT22;5844;51.496;6.788;2023-08-06T13:20:57;17.70;1.00
11577;DHT22;5844;51.496;6.788;2023-08-06T13:23:22;17.70;1.00
11577;DHT22;5844;51.496;6.788;2023-08-06T13:25:48;17.60;1.00
11577;DHT22;5844;51.496;6.788;2023-08-06T13:28:13;17.60;1.00
11577;DHT22;5844;51.496;6.788;2023-08-06T13:30:40;17.80;1.00
11577;DHT22;5844;51.496;6.788;2023-08-06T13:33:10;17.90;1.00
11577;DHT22;5844;51.496;6.788;2023-08-06T13:35:36;18.20;1.00
11577;DHT22;5844;51.496;6.788;2023-08-06T13:38:02;18.10;1.00
11577;DHT22;5844;51.496;6.788;2023-08-06T13:40:29;18.30;1.00
11577;DHT22;5844;51.496;6.788;2023-08-06T13:42:55;18.30;1.00
11577;DHT22;5844;51.496;6.788;2023-08-06T13:45:22;18.30;1.00
11577;DHT22;5844;51.496;6.788;2023-08-06T13:47:47;18.20;1.00
11577;DHT22;5844;51.496;6.788;2023-08-06T13:50:13;18.00;1.00
11577;DHT22;5844;51.496;6.788;2023-08-06T13:52:39;18.00;1.00
11577;DHT22;5844;51.496;6.788;2023-08-06T13:55:05;18.00;1.00
11577;DHT22;5844;51.496;6.788;2023-08-06T13:57:31;18.10;1.00
11577;DHT22;5844;51.496;6.788;2023-08-06T13:59:57;18.20;1.00
11577;DHT22;5844;51.496;6.788;2023-08-06T14:02:23;18.30;1.00
11577;DHT22;5844;51.496;6.788;2023-08-06T14:04:49;18.30;1.00
11577;DHT22;5844;51.496;6.788;2023-08-06T14:07:15;18.40;1.00
11577;DHT22;5844;51.496;6.788;2023-08-06T14:09:40;18.30;1.00
11577;DHT22;5844;51.496;6.788;2023-08-06T14:12:07;18.20;1.00
11577;DHT22;5844;51.496;6.788;2023-08-06T14:14:33;18.10;1.00
11577;DHT22;5844;51.496;6.788;2023-08-06T14:17:00;18.30;1.00
11577;DHT22;5844;51.496;6.788;2023-08-06T14:19:26;18.40;1.00
11577;DHT22;5844;51.496;6.788;2023-08-06T14:21:51;18.30;1.00
11577;DHT22;5844;51.496;6.788;2023-08-06T14:24:17;18.20;1.00
11577;DHT22;5844;51.496;6.788;2023-08-06T14:26:43;18.20;1.00
11577;DHT22;5844;51.496;6.788;2023-08-06T14:29:08;18.10;1.00
11577;DHT22;5844;51.496;6.788;2023-08-06T14:31:34;18.40;1.00
11577;DHT22;5844;51.496;6.788;2023-08-06T14:34:00;18.60;1.00
11577;DHT22;5844;51.496;6.788;2023-08-06T14:36:26;18.60;1.00
11577;DHT22;5844;51.496;6.788;2023-08-06T14:38:52;19.00;1.00
11577;DHT22;5844;51.496;6.788;2023-08-06T14:41:18;19.30;1.00
11577;DHT22;5844;51.496;6.788;2023-08-06T14:43:43;19.30;1.00
11577;DHT22;5844;51.496;6.788;2023-08-06T14:46:09;19.20;1.00
11577;DHT22;5844;51.496;6.788;2023-08-06T14:48:35;18.80;1.00
11577;DHT22;5844;51.496;6.788;2023-08-06T14:51:01;18.80;1.00
11577;DHT22;5844;51.496;6.788;2023-08-06T14:53:27;18.90;1.00
11577;DHT22;5844;51.496;6.788;2023-08-06T14:55:52;18.90;1.00
11577;DHT22;5844;51.496;6.788;2023-08-06T14:58:19;18.90;1.00
11577;DHT22;5844;51.496;6.788;2023-08-06T15:00:45;18.60;1.00
11577;DHT22;5844;51.496;6.788;2023-08-06T15:03:11;18.50;1.00
11577;DHT22;5844;51.496;6.788;2023-08-06T15:05:36;18.40;1.00
11577;DHT22;5844;51.496;6.788;2023-08-06T15:08:02;18.40;1.00
11577;DHT22;5844;51.496;6.788;2023-08-06T15:10:28;18.40;1.00
11577;DHT22;5844;51.496;6.788;2023-08-06T15:12:54;18.30;1.00
11577;DHT22;5844;51.496;6.788;2023-08-06T15:15:20;18.30;1.00
11577;DHT22;5844;51.496;6.788;2023-08-06T15:17:48;18.10;1.00
11577;DHT22;5844;51.496;6.788;2023-08-06T15:20:14;18.10;1.00
11577;DHT22;5844;51.496;6.788;2023-08-06T15:22:40;18.00;1.00
11577;DHT22;5844;51.496;6.788;2023-08-06T15:25:05;18.00;1.00
11577;DHT22;5844;51.496;6.788;2023-08-06T15:27:31;18.00;1.00
11577;DHT22;5844;51.496;6.788;2023-08-06T15:29:58;18.10;1.00
11577;DHT22;5844;51.496;6.788;2023-08-06T15:32:23;18.00;1.00
11577;DHT22;5844;51.496;6.788;2023-08-06T15:34:50;18.00;1.00
11577;DHT22;5844;51.496;6.788;2023-08-06T15:37:16;18.00;1.00
11577;DHT22;5844;51.496;6.788;2023-08-06T15:39:41;18.10;1.00
11577;DHT22;5844;51.496;6.788;2023-08-06T15:42:07;18.20;1.00
11577;DHT22;5844;51.496;6.788;2023-08-06T15:44:32;18.40;1.00
11577;DHT22;5844;51.496;6.788;2023-08-06T15:46:58;18.60;1.00
11577;DHT22;5844;51.496;6.788;2023-08-06T15:49:24;18.60;1.00
11577;DHT22;5844;51.496;6.788;2023-08-06T15:51:49;18.60;1.00
11577;DHT22;5844;51.496;6.788;2023-08-06T15:54:15;18.40;1.00
11577;DHT22;5844;51.496;6.788;2023-08-06T15:56:41;18.30;1.00
11577;DHT22;5844;51.496;6.788;2023-08-06T15:59:25;18.10;1.00
11577;DHT22;5844;51.496;6.788;2023-08-06T16:01:51;18.00;1.00
11577;DHT22;5844;51.496;6.788;2023-08-06T16:04:17;17.90;1.00